Time;durP1;ratioP1;P1;durP2;ratioP2;P2;SDS_P1;SDS_P2;PMS_P1;PMS_P2;Temp;Humidity;BMP_temperature;BMP_pressure;BME280_temperature;BME280_humidity;BME280_pressure;Samples;Min_cycle;Max_cycle;Signal;HPM_P1;HPM_P2
2022/12/26 00:01:38;;;;;;;34.25;29.58;;;;;;;9.09;100.00;100906.59;5056203;28;20025;-67
2022/12/26 00:04:05;;;;;;;36.92;30.95;;;;;;;9.14;100.00;100912.47;5055140;28;20112;-67
2022/12/26 00:06:31;;;;;;;41.55;30.50;;;;;;;9.18;100.00;100916.69;5054913;28;20083;-67
2022/12/26 00:08:59;;;;;;;36.30;30.83;;;;;;;9.17;100.00;100906.13;5055076;28;20056;-68
2022/12/26 00:11:24;;;;;;;37.00;32.20;;;;;;;9.15;100.00;100908.91;5055111;28;20029;-68
2022/12/26 00:14:02;;;;;;;35.15;30.83;;;;;;;9.17;100.00;100903.50;5054882;28;20063;-67
2022/12/26 00:16:28;;;;;;;41.70;33.75;;;;;;;9.20;100.00;100903.31;5054763;28;20468;-67
2022/12/26 00:18:54;;;;;;;41.83;34.40;;;;;;;9.16;100.00;100910.59;5055135;28;20051;-67
2022/12/26 00:21:20;;;;;;;41.50;34.67;;;;;;;9.19;100.00;100918.38;5054409;28;20031;-68
2022/12/26 00:23:46;;;;;;;38.97;34.58;;;;;;;9.19;100.00;100921.03;5054365;28;20111;-67
2022/12/26 00:26:18;;;;;;;42.33;35.33;;;;;;;9.18;100.00;100932.59;5054102;28;20056;-67
2022/12/26 00:28:44;;;;;;;42.33;34.88;;;;;;;9.16;100.00;100926.53;5054553;28;20076;-68
2022/12/26 00:31:13;;;;;;;45.95;36.80;;;;;;;9.17;100.00;100928.22;5054503;28;20056;-67
2022/12/26 00:33:39;;;;;;;44.50;36.35;;;;;;;9.22;100.00;100941.25;5060655;28;20027;-67
2022/12/26 00:36:08;;;;;;;43.20;36.15;;;;;;;9.16;100.00;100941.59;5053136;28;20403;-67
2022/12/26 00:38:35;;;;;;;42.35;36.05;;;;;;;9.09;100.00;100939.28;5054103;28;20041;-68
2022/12/26 00:41:00;;;;;;;45.08;37.50;;;;;;;9.16;100.00;100945.09;5054588;28;20410;-67
2022/12/26 00:43:25;;;;;;;50.47;38.53;;;;;;;9.16;100.00;100938.94;5055876;28;20116;-67
2022/12/26 00:45:51;;;;;;;41.50;36.92;;;;;;;9.16;100.00;100938.94;5052814;28;20488;-67
2022/12/26 00:48:17;;;;;;;42.85;35.60;;;;;;;9.16;100.00;100938.94;5054157;28;20043;-67
2022/12/26 00:50:42;;;;;;;41.13;35.30;;;;;;;9.08;100.00;100934.91;5054087;28;20036;-67
2022/12/26 00:53:07;;;;;;;42.40;35.13;;;;;;;9.13;100.00;100947.91;5068530;28;20036;-67
2022/12/26 00:55:33;;;;;;;42.80;36.25;;;;;;;9.10;100.00;100943.63;5072093;28;20040;-67
2022/12/26 00:57:59;;;;;;;39.78;33.67;;;;;;;9.15;100.00;100958.44;5074164;28;20039;-67
2022/12/26 01:00:25;;;;;;;41.33;33.72;;;;;;;9.09;100.00;100944.59;5071851;28;20032;-67
2022/12/26 01:02:50;;;;;;;38.90;34.25;;;;;;;9.14;100.00;100968.19;5072512;28;20372;-67
2022/12/26 01:05:17;;;;;;;38.15;33.00;;;;;;;9.10;100.00;100940.97;5060786;28;20032;-67
2022/12/26 01:07:44;;;;;;;37.65;33.55;;;;;;;9.14;100.00;100933.69;5070700;28;20043;-67
2022/12/26 01:10:11;;;;;;;38.08;33.72;;;;;;;9.14;100.00;100946.13;5050389;28;20110;-67
2022/12/26 01:12:37;;;;;;;43.17;34.50;;;;;;;9.10;100.00;100961.34;5073431;28;20024;-67
2022/12/26 01:15:04;;;;;;;42.33;34.33;;;;;;;9.11;100.00;100968.38;5066237;28;20499;-67
2022/12/26 01:17:30;;;;;;;40.13;35.33;;;;;;;9.11;100.00;100971.00;5052690;28;20032;-67
2022/12/26 01:19:56;;;;;;;43.13;35.72;;;;;;;9.07;100.00;100966.84;5056042;28;20040;-67
2022/12/26 01:22:22;;;;;;;39.95;34.38;;;;;;;9.08;100.00;100976.50;5089362;28;20479;-67
2022/12/26 01:24:48;;;;;;;42.28;35.67;;;;;;;9.06;100.00;100960.69;5071645;28;20032;-67
2022/12/26 01:27:13;;;;;;;39.88;34.78;;;;;;;9.08;100.00;100949.97;5050255;28;20083;-67
2022/12/26 01:29:39;;;;;;;38.58;33.83;;;;;;;9.05;100.00;100958.94;5052135;28;20068;-67
2022/12/26 01:32:05;;;;;;;40.97;35.50;;;;;;;9.07;100.00;100959.72;5053362;28;20557;-67
2022/12/26 01:34:31;;;;;;;40.63;35.22;;;;;;;9.04;100.00;100962.53;5052135;28;20047;-67
2022/12/26 01:36:59;;;;;;;37.47;33.40;;;;;;;9.07;100.00;100964.19;5053332;28;20029;-67
2022/12/26 01:39:25;;;;;;;38.60;33.20;;;;;;;9.03;100.00;100952.88;5051854;28;20087;-67
2022/12/26 01:41:53;;;;;;;35.33;31.08;;;;;;;9.02;100.00;100955.59;5052349;28;20037;-67
2022/12/26 01:44:59;;;;;;;34.53;30.45;;;;;;;9.04;100.00;100961.69;5051296;28;20087;-67
2022/12/26 01:47:34;;;;;;;33.80;30.20;;;;;;;9.06;100.00;100963.31;5030301;28;20045;-67
2022/12/26 01:50:00;;;;;;;33.28;29.48;;;;;;;9.05;100.00;100963.41;5057133;28;20533;-67
2022/12/26 01:52:38;;;;;;;32.03;28.67;;;;;;;8.97;100.00;100955.88;5073199;28;20086;-67
2022/12/26 01:55:11;;;;;;;31.60;28.23;;;;;;;8.95;100.00;100962.19;5071151;28;20106;-67
2022/12/26 01:57:49;;;;;;;30.67;27.55;;;;;;;8.92;100.00;100959.72;5058316;28;20028;-67
2022/12/26 02:00:15;;;;;;;30.05;26.95;;;;;;;8.81;100.00;100961.13;5073149;28;20031;-67
2022/12/26 02:05:33;;;;;;;28.77;25.73;;;;;;;8.87;100.00;100962.59;5073112;28;20395;-67
2022/12/26 02:08:07;;;;;;;29.38;25.90;;;;;;;8.77;100.00;100966.72;5064223;28;20061;-67
2022/12/26 02:10:38;;;;;;;28.50;25.50;;;;;;;8.83;100.00;100969.88;5051758;28;20060;-67
2022/12/26 02:13:04;;;;;;;27.00;24.10;;;;;;;8.86;100.00;100975.00;5052709;28;20040;-67
2022/12/26 02:15:30;;;;;;;27.08;24.27;;;;;;;8.83;100.00;100975.19;5051116;28;20032;-67
2022/12/26 02:17:56;;;;;;;27.55;24.75;;;;;;;8.83;100.00;100972.53;5055204;28;20024;-67
2022/12/26 02:20:31;;;;;;;27.77;24.52;;;;;;;8.89;100.00;100978.44;5069876;28;20036;-68
2022/12/26 02:23:07;;;;;;;28.02;24.67;;;;;;;8.81;100.00;100974.41;5063697;28;20457;-67
2022/12/26 02:26:06;;;;;;;25.75;23.05;;;;;;;9.06;100.00;100975.75;5071693;28;20460;-67
2022/12/26 02:28:49;;;;;;;25.17;22.48;;;;;;;8.89;100.00;100975.81;5071619;28;20045;-67
2022/12/26 02:31:52;;;;;;;24.40;21.80;;;;;;;8.91;100.00;100973.91;5072504;28;20024;-67
2022/12/26 02:34:36;;;;;;;24.63;22.08;;;;;;;8.91;100.00;100965.94;5053490;28;20053;-68
2022/12/26 02:37:26;;;;;;;25.77;22.98;;;;;;;8.95;100.00;100980.78;5052310;28;20029;-67
2022/12/26 02:39:57;;;;;;;25.30;22.80;;;;;;;8.92;100.00;100976.47;5051983;28;20036;-68
2022/12/26 02:42:31;;;;;;;24.83;22.23;;;;;;;8.92;100.00;100965.88;5052906;28;20507;-67
2022/12/26 02:48:35;;;;;;;23.73;21.35;;;;;;;8.92;100.00;101000.34;5070320;28;20442;-67
2022/12/26 03:14:27;;;;;;;18.17;16.40;;;;;;;8.64;100.00;100972.63;5051845;28;20040;-67
2022/12/26 03:19:58;;;;;;;17.73;15.70;;;;;;;8.78;100.00;100997.56;5064931;28;20043;-67
2022/12/26 03:22:29;;;;;;;16.83;15.13;;;;;;;8.76;100.00;100992.34;5071566;28;20032;-67
2022/12/26 03:27:43;;;;;;;16.63;15.13;;;;;;;8.78;100.00;100981.66;5057212;28;20075;-67
2022/12/26 03:32:56;;;;;;;16.08;14.48;;;;;;;8.74;100.00;100959.78;5064785;28;20052;-67
2022/12/26 03:35:22;;;;;;;14.93;13.55;;;;;;;8.76;100.00;100965.81;5051353;28;20031;-67
2022/12/26 03:37:54;;;;;;;15.05;13.52;;;;;;;8.76;100.00;100965.81;5063856;28;20078;-67
2022/12/26 04:44:27;;;;;;;13.60;12.40;;;;;;;8.53;100.00;100990.94;5055730;28;20063;-67
2022/12/26 04:46:55;;;;;;;12.52;11.30;;;;;;;8.52;100.00;100991.84;5067038;28;20021;-67
2022/12/26 04:52:08;;;;;;;13.63;12.32;;;;;;;8.55;100.00;100978.44;5074789;28;20577;-67
2022/12/26 04:54:34;;;;;;;14.50;13.15;;;;;;;8.49;100.00;100983.19;5072653;28;20032;-67
2022/12/26 04:57:02;;;;;;;14.07;12.77;;;;;;;8.50;100.00;100980.50;5069671;28;20078;-67
2022/12/26 04:59:28;;;;;;;14.20;12.77;;;;;;;8.45;100.00;100979.88;5072212;28;20112;-67
2022/12/26 05:10:19;;;;;;;15.18;13.80;;;;;;;8.46;100.00;100991.31;5053475;28;20404;-67
2022/12/26 05:12:46;;;;;;;14.55;13.05;;;;;;;8.39;100.00;100988.13;5053626;28;20025;-67
2022/12/26 05:15:13;;;;;;;14.27;12.88;;;;;;;8.37;100.00;101000.56;5053268;28;20056;-67
2022/12/26 05:28:52;;;;;;;14.02;12.13;;;;;;;8.39;100.00;101004.88;5053671;28;20132;-67
2022/12/26 05:31:17;;;;;;;14.52;11.27;;;;;;;8.40;100.00;101005.75;5054148;28;20049;-68
2022/12/26 05:36:32;;;;;;;12.80;11.50;;;;;;;8.34;100.00;100992.78;5054899;28;20503;-67
2022/12/26 05:39:00;;;;;;;15.80;12.35;;;;;;;8.36;100.00;100994.41;5033194;28;20021;-67
2022/12/26 05:41:26;;;;;;;13.07;11.80;;;;;;;8.37;100.00;100987.31;5033177;28;20021;-66
2022/12/26 05:43:52;;;;;;;12.77;11.43;;;;;;;8.35;100.00;100981.22;5033317;28;20033;-67
2022/12/26 05:46:18;;;;;;;13.45;10.80;;;;;;;8.32;100.00;100973.44;5048989;28;20065;-67
2022/12/26 05:48:43;;;;;;;12.05;10.90;;;;;;;8.30;100.00;100965.59;5061640;28;20072;-67
2022/12/26 05:51:09;;;;;;;11.45;10.45;;;;;;;8.35;100.00;100965.31;5054202;28;20076;-67
2022/12/26 05:53:35;;;;;;;12.35;11.15;;;;;;;8.30;100.00;100962.09;5052714;28;20021;-67
2022/12/26 05:56:11;;;;;;;11.07;9.98;;;;;;;8.20;100.00;100957.22;5053116;28;20029;-67
2022/12/26 05:58:37;;;;;;;12.52;11.32;;;;;;;8.29;100.00;100961.19;5056342;28;20044;-67
2022/12/26 06:01:18;;;;;;;11.05;9.95;;;;;;;8.27;100.00;100970.19;5073057;28;20466;-67
2022/12/26 06:03:48;;;;;;;12.02;10.82;;;;;;;8.25;100.00;100980.84;5072985;28;20024;-68
2022/12/26 06:06:15;;;;;;;12.18;10.85;;;;;;;8.25;100.00;100983.50;5062839;28;20107;-67
2022/12/26 06:08:42;;;;;;;11.25;10.10;;;;;;;8.32;100.00;100992.00;5050689;28;20558;-67
2022/12/26 06:11:11;;;;;;;10.90;9.88;;;;;;;8.31;100.00;100999.09;5052938;28;20060;-67
2022/12/26 06:13:40;;;;;;;10.90;9.80;;;;;;;8.38;100.00;101004.91;5052626;28;20116;-67
2022/12/26 06:16:12;;;;;;;10.10;9.07;;;;;;;8.35;100.00;101003.31;5052806;28;20290;-67
2022/12/26 06:18:39;;;;;;;10.93;9.93;;;;;;;8.36;100.00;101009.47;5052648;28;20021;-67
2022/12/26 06:21:05;;;;;;;10.48;9.57;;;;;;;8.32;100.00;101007.88;5052791;28;20025;-67
2022/12/26 06:23:31;;;;;;;10.25;9.23;;;;;;;8.36;100.00;101006.81;5053224;28;20025;-66
2022/12/26 06:25:56;;;;;;;10.48;9.27;;;;;;;8.48;100.00;101013.31;5051580;28;20480;-67
2022/12/26 06:28:23;;;;;;;10.43;9.32;;;;;;;8.49;100.00;101020.31;5084342;28;20140;-67
2022/12/26 06:30:50;;;;;;;9.88;8.98;;;;;;;8.45;100.00;101030.22;5051421;28;20103;-67
2022/12/26 06:33:17;;;;;;;8.68;7.97;;;;;;;8.46;100.00;101020.47;5052297;28;20048;-67
2022/12/26 06:35:43;;;;;;;9.50;8.65;;;;;;;8.53;100.00;101030.69;5052747;28;20052;-67
2022/12/26 06:38:09;;;;;;;9.25;8.40;;;;;;;8.46;100.00;101037.22;5069103;28;20071;-67
2022/12/26 06:40:41;;;;;;;9.27;8.48;;;;;;;8.49;100.00;101041.53;5071417;28;20024;-67
2022/12/26 06:43:07;;;;;;;9.43;8.48;;;;;;;8.46;100.00;101041.69;5070177;28;20301;-67
2022/12/26 06:45:33;;;;;;;9.20;7.97;;;;;;;8.44;100.00;101033.78;5052221;28;20039;-68
2022/12/26 06:47:58;;;;;;;10.13;8.20;;;;;;;8.43;100.00;101026.78;5052646;28;20108;-67
2022/12/26 06:50:27;;;;;;;9.20;8.43;;;;;;;8.41;100.00;101036.59;5066751;28;20040;-67
2022/12/26 06:52:52;;;;;;;8.73;7.93;;;;;;;8.45;100.00;101034.66;5070912;28;20037;-67
2022/12/26 06:55:18;;;;;;;8.13;7.32;;;;;;;8.36;100.00;101028.00;5069818;28;20515;-67
2022/12/26 06:57:43;;;;;;;12.02;8.70;;;;;;;8.28;100.00;101017.78;5071176;28;20078;-67
2022/12/26 07:00:09;;;;;;;8.90;7.97;;;;;;;8.30;100.00;101033.63;5085399;28;20077;-67
2022/12/26 07:02:36;;;;;;;8.50;7.53;;;;;;;8.26;100.00;101030.25;5071956;28;20048;-67
2022/12/26 07:05:01;;;;;;;8.18;7.32;;;;;;;8.29;100.00;101031.88;5070369;28;20498;-67
2022/12/26 07:07:27;;;;;;;10.45;7.30;;;;;;;8.27;100.00;101029.34;5070141;28;20028;-67
2022/12/26 07:09:52;;;;;;;8.90;6.88;;;;;;;8.24;100.00;101029.50;5068188;28;20043;-67
2022/12/26 07:12:20;;;;;;;8.65;7.07;;;;;;;8.28;100.00;101027.53;5055670;28;20063;-67
2022/12/26 07:14:46;;;;;;;8.32;7.50;;;;;;;8.22;100.00;101033.16;5051250;28;20468;-67
2022/12/26 07:17:12;;;;;;;9.75;7.25;;;;;;;8.19;100.00;101034.16;5051860;28;20032;-67
2022/12/26 07:19:37;;;;;;;11.00;7.45;;;;;;;8.17;100.00;101039.53;5052369;28;20017;-67
2022/12/26 07:22:03;;;;;;;7.93;6.95;;;;;;;8.16;100.00;101037.81;5049791;28;20075;-67
2022/12/26 07:24:29;;;;;;;10.27;7.32;;;;;;;8.15;100.00;101030.81;5050883;28;20021;-67
2022/12/26 07:26:54;;;;;;;11.63;7.25;;;;;;;8.16;100.00;101035.16;5051721;28;20063;-67
2022/12/26 07:29:22;;;;;;;9.07;6.70;;;;;;;8.11;100.00;101036.31;5062702;28;20132;-67
2022/12/26 07:31:48;;;;;;;8.48;7.07;;;;;;;8.09;100.00;101041.72;5069632;28;20036;-66
2022/12/26 07:34:14;;;;;;;8.70;7.07;;;;;;;8.14;100.00;101041.47;5055543;28;20090;-67
2022/12/26 07:36:42;;;;;;;7.85;6.75;;;;;;;8.16;100.00;101034.31;5049753;28;20489;-67
2022/12/26 07:39:11;;;;;;;10.20;7.30;;;;;;;8.17;100.00;101036.88;5050216;28;20096;-67
2022/12/26 07:44:20;;;;;;;7.85;7.07;;;;;;;8.20;100.00;101052.59;5054461;28;20040;-67
2022/12/26 07:46:45;;;;;;;7.93;7.10;;;;;;;8.26;100.00;101046.16;5062305;28;20033;-67
2022/12/26 07:49:11;;;;;;;11.43;7.20;;;;;;;8.25;100.00;101051.53;5043175;28;20400;-67
2022/12/26 07:51:37;;;;;;;7.13;6.43;;;;;;;8.28;100.00;101048.75;5016362;28;20027;-67
2022/12/26 07:54:05;;;;;;;9.07;6.72;;;;;;;8.26;100.00;101047.94;5048561;28;20028;-67
2022/12/26 07:56:31;;;;;;;8.63;7.22;;;;;;;8.20;100.00;101049.09;5040894;28;20040;-68
2022/12/26 07:58:59;;;;;;;7.43;6.60;;;;;;;8.24;100.00;101057.78;5056392;28;20017;-67
2022/12/26 08:01:25;;;;;;;13.68;6.70;;;;;;;8.26;100.00;101059.41;5050621;28;20041;-66
2022/12/26 08:03:51;;;;;;;7.90;6.45;;;;;;;8.25;100.00;101059.50;5050527;28;20087;-69
2022/12/26 08:06:17;;;;;;;7.13;6.47;;;;;;;8.22;100.00;101063.16;5054221;28;20598;-68
2022/12/26 08:08:43;;;;;;;8.93;6.68;;;;;;;8.26;100.00;101047.94;5053253;28;20096;-68
2022/12/26 08:11:14;;;;;;;8.07;6.72;;;;;;;8.22;100.00;101055.19;5052024;28;20025;-69
2022/12/26 08:13:41;;;;;;;;;;;;;;;8.42;100.00;101059.53;5042227;28;20072;-69
2022/12/26 08:16:09;;;;;;;9.93;6.03;;;;;;;8.32;100.00;101061.75;5062227;28;19916;-68
2022/12/26 08:18:35;;;;;;;7.35;6.22;;;;;;;8.27;100.00;101063.78;5053862;28;20067;-69
2022/12/26 08:21:03;;;;;;;9.45;6.38;;;;;;;8.30;100.00;101065.44;5054830;28;20511;-68
2022/12/26 08:23:28;;;;;;;7.32;6.30;;;;;;;8.35;100.00;101066.03;5068064;28;20280;-69
2022/12/26 08:25:54;;;;;;;8.13;5.97;;;;;;;8.31;100.00;101053.88;5058623;28;20025;-68
2022/12/26 08:28:19;;;;;;;8.38;6.32;;;;;;;8.33;100.00;101058.16;5051430;28;20056;-68
2022/12/26 08:30:45;;;;;;;7.40;6.60;;;;;;;8.35;100.00;101061.63;5041832;28;20036;-66
2022/12/26 08:33:12;;;;;;;9.48;6.78;;;;;;;8.37;100.00;101067.66;5048194;28;20044;-67
2022/12/26 08:35:39;;;;;;;7.35;6.28;;;;;;;8.39;100.00;101068.50;5054568;28;20384;-69
2022/12/26 08:38:04;;;;;;;6.93;6.18;;;;;;;8.40;100.00;101061.41;5051326;28;20519;-66
2022/12/26 08:40:30;;;;;;;7.35;6.03;;;;;;;8.50;100.00;101062.66;5045696;28;20108;-69
2022/12/26 08:42:56;;;;;;;9.48;5.82;;;;;;;8.53;100.00;101083.72;5053562;28;20160;-69
2022/12/26 08:45:22;;;;;;;6.97;5.95;;;;;;;8.60;100.00;101087.75;5053473;28;20016;-70
2022/12/26 08:47:48;;;;;;;9.40;5.97;;;;;;;8.64;100.00;101089.28;5048452;28;20034;-69
2022/12/26 08:50:14;;;;;;;6.90;6.20;;;;;;;8.67;100.00;101093.59;5053520;28;20439;-70
2022/12/26 08:52:40;;;;;;;6.28;5.50;;;;;;;8.74;100.00;101095.00;5035280;28;20032;-70
2022/12/26 08:55:06;;;;;;;8.70;5.32;;;;;;;8.80;100.00;101091.19;5053298;28;20032;-67
2022/12/26 08:57:31;;;;;;;5.85;5.20;;;;;;;8.81;100.00;101101.69;5069491;28;20445;-66
2022/12/26 08:59:57;;;;;;;7.15;5.28;;;;;;;8.90;100.00;101112.78;5087128;28;20099;-65
2022/12/26 09:02:22;;;;;;;8.35;4.60;;;;;;;8.89;100.00;101101.31;5053447;28;20131;-66
2022/12/26 09:04:48;;;;;;;9.27;4.63;;;;;;;9.03;100.00;101106.75;5069685;28;20495;-67
2022/12/26 09:07:13;;;;;;;6.05;4.30;;;;;;;8.95;100.00;101108.09;5072874;28;20028;-66
2022/12/26 09:09:38;;;;;;;6.00;4.45;;;;;;;9.08;100.00;101119.75;5072138;28;20036;-67
2022/12/26 09:12:04;;;;;;;6.53;4.22;;;;;;;9.10;100.00;101113.44;5073149;28;20021;-65
2022/12/26 09:14:30;;;;;;;9.25;4.13;;;;;;;9.16;100.00;101114.06;5070646;28;20024;-68
2022/12/26 09:16:55;;;;;;;8.50;3.90;;;;;;;9.33;100.00;101112.22;5071830;28;20036;-69
2022/12/26 09:19:21;;;;;;;7.28;3.83;;;;;;;9.26;100.00;101108.16;5073634;28;20029;-65
2022/12/26 09:21:48;;;;;;;6.50;4.15;;;;;;;9.33;100.00;101127.31;5072596;28;20445;-65
2022/12/26 09:24:16;;;;;;;6.45;3.80;;;;;;;9.41;100.00;101117.13;5067363;28;20029;-66
2022/12/26 09:26:42;;;;;;;6.13;3.25;;;;;;;9.42;100.00;101141.88;5053776;28;20029;-66
2022/12/26 09:29:12;;;;;;;6.05;3.25;;;;;;;9.54;99.56;101119.97;5053734;28;20396;-65
2022/12/26 09:31:38;;;;;;;9.45;3.35;;;;;;;9.54;100.00;101125.28;5053295;28;20033;-65
2022/12/26 09:34:06;;;;;;;4.68;3.05;;;;;;;9.43;99.69;101125.00;5053696;28;20036;-70
2022/12/26 09:36:36;;;;;;;6.53;3.50;;;;;;;9.45;99.56;101136.41;5054726;28;20064;-64
2022/12/26 09:39:02;;;;;;;9.75;3.35;;;;;;;9.45;99.73;101142.56;5066375;28;20157;-67
2022/12/26 09:41:46;;;;;;;6.00;3.33;;;;;;;9.46;100.00;101149.59;5065565;28;20513;-67
2022/12/26 09:44:53;;;;;;;4.90;3.13;;;;;;;9.49;100.00;101148.56;5047486;28;20037;-66
2022/12/26 09:47:25;;;;;;;5.90;3.40;;;;;;;9.43;100.00;101149.75;5047035;28;20037;-65
2022/12/26 09:49:54;;;;;;;5.18;2.95;;;;;;;9.45;99.46;101155.84;5050659;28;20037;-65
2022/12/26 09:52:23;;;;;;;7.35;3.40;;;;;;;9.41;99.82;101166.69;5052586;28;20059;-65
2022/12/26 09:55:03;;;;;;;6.70;3.05;;;;;;;9.40;99.48;101171.16;5051916;28;20028;-66
2022/12/26 09:57:46;;;;;;;7.55;3.60;;;;;;;9.39;99.84;101177.41;5051546;28;20449;-66
2022/12/26 10:00:23;;;;;;;6.47;3.30;;;;;;;9.43;99.30;101178.09;5047916;28;20391;-68
2022/12/26 10:02:53;;;;;;;10.75;3.28;;;;;;;9.36;99.78;101174.06;5043469;28;20067;-68
2022/12/26 10:05:24;;;;;;;;;;;;;;;9.54;99.90;101173.06;5051448;28;20039;-68
2022/12/26 10:07:58;;;;;;;9.50;3.80;;;;;;;9.33;100.00;101186.56;5051643;28;20095;-67
2022/12/26 10:10:34;;;;;;;6.10;3.60;;;;;;;9.33;100.00;101175.94;5055829;28;20103;-67
2022/12/26 10:13:19;;;;;;;10.40;4.25;;;;;;;9.39;100.00;101179.22;5055765;28;20033;-68
2022/12/26 10:16:10;;;;;;;7.72;3.97;;;;;;;9.33;99.81;101178.59;5048581;28;20035;-67
2022/12/26 10:19:13;;;;;;;8.15;4.03;;;;;;;9.42;99.50;101197.63;5050505;28;20379;-66
2022/12/26 10:21:38;;;;;;;7.25;3.72;;;;;;;9.39;98.50;101192.50;5033455;28;20403;-67
2022/12/26 10:24:17;;;;;;;5.82;3.45;;;;;;;9.39;98.86;101206.59;5051631;28;20025;-68
2022/12/26 10:26:54;;;;;;;6.47;4.05;;;;;;;9.34;98.42;101187.41;5070849;28;20476;-67
2022/12/26 10:29:29;;;;;;;8.15;4.03;;;;;;;9.38;99.08;101186.28;5069777;28;20044;-67
2022/12/26 10:32:01;;;;;;;6.68;3.60;;;;;;;9.38;99.02;101193.41;5071602;28;20470;-68
2022/12/26 10:34:32;;;;;;;7.43;3.60;;;;;;;9.43;97.76;101194.03;5054442;28;20028;-68
2022/12/26 10:37:02;;;;;;;9.13;3.95;;;;;;;9.41;99.09;101210.06;5055609;28;20085;-68
2022/12/26 10:39:48;;;;;;;8.00;3.50;;;;;;;9.24;100.00;101242.78;5043868;28;20032;-68
2022/12/26 10:42:29;;;;;;;6.85;3.20;;;;;;;8.79;99.58;101265.34;5052075;28;20049;-68
2022/12/26 10:44:54;;;;;;;7.00;2.90;;;;;;;8.50;100.00;101266.78;5051803;28;20514;-68
2022/12/26 10:47:42;;;;;;;7.25;3.00;;;;;;;8.45;100.00;101265.28;5061233;28;20107;-68
2022/12/26 10:50:15;;;;;;;10.43;3.35;;;;;;;8.28;100.00;101269.53;5052982;28;20415;-68
2022/12/26 10:52:41;;;;;;;8.23;3.55;;;;;;;8.24;100.00;101273.25;5049696;28;20362;-68
2022/12/26 10:55:16;;;;;;;8.27;3.55;;;;;;;8.15;100.00;101277.19;5049643;28;20392;-68
2022/12/26 10:57:45;;;;;;;9.27;3.78;;;;;;;8.14;100.00;101274.59;5051490;28;20419;-68
2022/12/26 11:00:24;;;;;;;9.15;3.45;;;;;;;8.17;100.00;101290.34;5051514;28;20032;-67
2022/12/26 11:03:06;;;;;;;;;;;;;;;8.24;100.00;101291.81;5061410;28;20024;-67
2022/12/26 11:05:33;;;;;;;;;;;;;;;8.24;100.00;101301.56;5070834;28;19912;-68
2022/12/26 11:08:17;;;;;;;;;;;;;;;8.30;100.00;101296.81;5072010;28;20002;-68
2022/12/26 11:10:46;;;;;;;;;;;;;;;8.32;100.00;101294.09;5068998;28;19961;-68
2022/12/26 11:13:17;;;;;;;;;;;;;;;8.32;100.00;101300.25;5070034;28;20274;-68
2022/12/26 11:15:50;;;;;;;;;;;;;;;8.31;100.00;101305.63;5058651;28;19922;-68
2022/12/26 11:18:16;;;;;;;;;;;;;;;8.28;100.00;101314.56;5051053;28;20467;-68
2022/12/26 11:20:41;;;;;;;;;;;;;;;8.34;100.00;101316.94;5067573;28;19912;-67
2022/12/26 11:23:13;;;;;;;;;;;;;;;8.35;99.16;101317.78;5052532;28;19913;-67
2022/12/26 11:25:46;;;;;;;;;;;;;;;8.28;98.15;101330.47;5050677;28;20316;-68
2022/12/26 11:28:19;;;;;;;;;;;;;;;8.25;98.65;101332.41;5052494;28;19924;-67
2022/12/26 11:30:46;;;;;;;;;;;;;;;8.20;98.14;101332.59;5051119;28;20011;-68
2022/12/26 11:33:18;;;;;;;;;;;;;;;8.19;98.11;101330.91;5052335;28;19917;-68
2022/12/26 11:35:52;;;;;;;;;;;;;;;8.20;97.86;101327.31;5052155;28;19919;-68
2022/12/26 11:38:34;;;;;;;;;;;;;;;8.20;98.18;101332.59;5064451;28;19955;-68
2022/12/26 11:43:56;;;;;;;;;;;;;;;8.18;96.15;101343.28;5060004;28;19920;-68
2022/12/26 11:46:29;;;;;;;;;;;;;;;8.21;95.68;101342.31;5051797;28;19951;-68
2022/12/26 11:48:54;;;;;;;;;;;;;;;8.20;95.35;101341.41;5051395;28;19954;-68
2022/12/26 11:51:32;;;;;;;;;;;;;;;8.32;96.29;101337.34;5050353;28;20015;-68
2022/12/26 11:54:18;;;;;;;;;;;;;;;8.52;95.65;101346.22;5062461;28;19997;-68
2022/12/26 11:56:43;;;;;;;;;;;;;;;8.76;93.26;101353.00;5071516;28;20371;-68
2022/12/26 11:59:19;;;;;;;;;;;;;;;8.85;91.37;101363.22;5070151;28;20046;-68
2022/12/26 12:01:45;;;;;;;;;;;;;;;9.00;90.84;101358.06;5069605;28;20355;-68
2022/12/26 12:04:10;;;;;;;;;;;;;;;9.00;89.07;101366.03;5070030;28;19938;-68
2022/12/26 12:06:36;;;;;;;;;;;;;;;8.85;86.52;101378.22;5066957;28;20050;-69
2022/12/26 12:09:20;;;;;;;;;;;;;;;8.76;89.05;101368.91;5070882;28;19919;-69
2022/12/26 12:11:55;;;;;;;;;;;;;;;8.56;88.28;101380.47;5068265;28;19960;-68
2022/12/26 12:14:31;;;;;;;;;;;;;;;8.45;87.05;101387.19;5050670;28;19917;-68
2022/12/26 12:16:56;;;;;;;;;;;;;;;8.40;87.85;101388.25;5031668;28;19909;-68
2022/12/26 12:19:25;;;;;;;;;;;;;;;8.31;87.73;101383.34;5068123;28;19977;-68
2022/12/26 12:22:09;;;;;;;;;;;;;;;8.26;87.42;101379.16;5071444;28;20390;-68
2022/12/26 12:24:47;;;;;;;;;;;;;;;8.15;87.95;101377.03;5055404;28;19913;-68
2022/12/26 12:27:16;;;;;;;;;;;;;;;8.08;88.08;101375.56;5051554;28;19966;-68
2022/12/26 12:29:49;;;;;;;;;;;;;;;8.04;87.44;101376.63;5049762;28;20372;-69
2022/12/26 12:32:15;;;;;;;;;;;;;;;7.99;88.61;101381.25;5058920;28;19920;-68
2022/12/26 12:34:50;;;;;;;;;;;;;;;8.03;89.15;101378.44;5051285;28;19909;-68
2022/12/26 12:37:18;;;;;;;;;;;;;;;7.93;87.98;101383.25;5061208;28;20264;-68
2022/12/26 12:40:06;;;;;;;;;;;;;;;7.84;87.81;101399.53;5071039;28;20379;-68
2022/12/26 12:42:53;;;;;;;;;;;;;;;7.84;89.30;101398.69;5059214;28;20337;-68
2022/12/26 12:45:25;;;;;;;;;;;;;;;7.89;89.29;101396.69;5049146;28;19917;-68
2022/12/26 12:48:06;;;;;;;;;;;;;;;7.86;88.10;101399.47;5061844;28;19947;-68
2022/12/26 12:50:37;;;;;;;;;;;;;;;7.89;89.79;101400.19;5070252;28;19938;-68
2022/12/26 12:53:09;;;;;;;;;;;;;;;7.88;88.28;101401.13;5058950;28;19963;-68
2022/12/26 12:55:57;;;;;;;;;;;;;;;7.91;87.97;101410.72;5061756;28;19969;-68
2022/12/26 12:58:22;;;;;;;;;;;;;;;7.88;88.02;101424.09;5064181;28;19918;-68
2022/12/26 13:00:51;;;;;;;;;;;;;;;7.89;88.18;101424.03;5062665;28;19925;-68
2022/12/26 13:03:24;;;;;;;;;;;;;;;7.92;89.05;101415.97;5056382;28;19913;-68
2022/12/26 13:06:00;;;;;;;;;;;;;;;7.91;86.30;101414.25;5073085;28;19974;-68
2022/12/26 13:08:32;;;;;;;;;;;;;;;7.90;86.23;101419.59;5071549;28;19926;-67
2022/12/26 13:11:03;;;;;;;;;;;;;;;7.95;85.58;101417.63;5072577;28;19908;-68
2022/12/26 13:13:32;;;;;;;;;;;;;;;7.99;85.73;101418.34;5060940;28;20398;-68
2022/12/26 13:16:05;;;;;;;;;;;;;;;8.01;84.49;101424.44;5053359;28;19909;-68
2022/12/26 13:18:34;;;;;;;;;;;;;;;8.02;84.29;101421.72;5053295;28;19909;-68
2022/12/26 13:21:03;;;;;;;;;;;;;;;7.97;82.79;101418.41;5054061;28;19912;-68
2022/12/26 13:26:34;;;;;;;;;;;;;;;7.89;82.53;101424.03;5054608;28;20371;-67
2022/12/26 13:29:05;;;;;;;;;;;;;;;7.93;83.75;101433.56;5053223;28;20107;-67
2022/12/26 13:31:34;;;;;;;;;;;;;;;7.87;83.45;101428.53;5056537;28;20326;-68
2022/12/26 13:34:01;;;;;;;;;;;;;;;7.78;81.80;101443.94;5066401;28;19939;-67
2022/12/26 13:36:54;;;;;;;;;;;;;;;7.61;82.72;101442.00;5073725;28;19913;-68
2022/12/26 13:39:22;;;;;;;;;;;;;;;7.64;84.69;101444.50;5068498;28;19913;-68
2022/12/26 13:44:35;;;;;;;;;;;;;;;7.48;83.87;101444.28;5071916;28;19980;-67
2022/12/26 13:47:00;;;;;;;;;;;;;;;7.46;83.35;101438.19;5072129;28;20367;-68
2022/12/26 13:49:26;;;;;;;;;;;;;;;7.58;84.02;101452.72;5072235;28;19948;-67
2022/12/26 13:51:52;;;;;;;;;;;;;;;7.60;82.13;101453.53;5059869;28;19939;-68
2022/12/26 13:54:17;;;;;;;;;;;;;;;7.62;81.87;101456.97;5052784;28;19908;-68
2022/12/26 13:56:43;;;;;;;;;;;;;;;7.65;81.82;101468.28;5053588;28;20284;-68
2022/12/26 13:59:15;;;;;;;;;;;;;;;7.63;81.72;101469.28;5053240;28;19912;-68
2022/12/26 14:01:56;;;;;;;;;;;;;;;7.70;81.90;101460.16;5061547;28;19965;-68
2022/12/26 14:04:21;;;;;;;;;;;;;;;7.76;80.25;101465.19;5072811;28;20013;-68
2022/12/26 14:07:05;;;;;;;;;;;;;;;7.66;80.52;101472.66;5073084;28;19948;-68
2022/12/26 14:09:34;;;;;;;;;;;;;;;7.60;80.93;101478.19;5072598;28;19926;-67
2022/12/26 14:12:17;;;;;;;;;;;;;;;7.47;80.98;101482.25;5055995;28;20406;-68